Time;durP1;ratioP1;P1;durP2;ratioP2;P2;SDS_P1;SDS_P2;PMS_P1;PMS_P2;Temp;Humidity;BMP_temperature;BMP_pressure;BME280_temperature;BME280_humidity;BME280_pressure;Samples;Min_cycle;Max_cycle;Signal;HPM_P1;HPM_P2
2022/03/28 02:06:02;;;;;;;6.05;1.65;;;;;;;9.12;62.13;101210.25;4993472;28;20108;-59
2022/03/28 02:08:29;;;;;;;7.95;1.90;;;;;;;9.12;62.35;101215.41;4995187;28;20054;-59
2022/03/28 02:10:56;;;;;;;3.75;1.55;;;;;;;9.09;62.64;101212.81;4995637;28;20397;-60
2022/03/28 02:13:22;;;;;;;5.13;1.75;;;;;;;9.08;62.53;101208.50;4995280;28;21689;-60
2022/03/28 02:15:49;;;;;;;7.22;1.50;;;;;;;9.09;62.71;101210.22;4996005;28;20517;-60
2022/03/28 02:18:16;;;;;;;7.05;1.98;;;;;;;9.08;62.63;101208.50;4996606;28;20064;-59
2022/03/28 02:20:43;;;;;;;2.88;1.50;;;;;;;9.08;63.14;101203.31;4993504;28;20045;-59
2022/03/28 02:23:11;;;;;;;3.97;1.63;;;;;;;9.08;62.53;101192.97;4995380;28;20064;-60
2022/03/28 02:25:39;;;;;;;11.18;3.55;;;;;;;9.06;63.45;101205.03;4997144;28;20057;-60
2022/03/28 02:28:06;;;;;;;3.15;1.20;;;;;;;9.02;62.78;101195.53;4995292;28;20085;-60
2022/03/28 02:30:33;;;;;;;4.45;1.40;;;;;;;9.01;63.56;101201.56;4998772;28;20061;-60
2022/03/28 02:33:00;;;;;;;2.70;1.10;;;;;;;9.01;63.08;101197.25;4995380;28;20188;-60
2022/03/28 02:35:27;;;;;;;2.97;1.17;;;;;;;9.02;63.76;101193.81;4994633;28;20053;-59
2022/03/28 02:37:53;;;;;;;4.65;1.55;;;;;;;9.01;63.29;101206.75;4995756;28;20045;-60
2022/03/28 02:40:21;;;;;;;4.70;1.52;;;;;;;9.00;63.94;101202.44;4995132;28;20406;-60
2022/03/28 02:42:48;;;;;;;11.13;1.50;;;;;;;8.99;63.91;101187.78;4995189;28;20049;-60
2022/03/28 02:45:15;;;;;;;3.88;1.13;;;;;;;8.99;63.32;101198.09;4995161;28;20176;-60
2022/03/28 02:47:42;;;;;;;5.30;1.30;;;;;;;8.99;63.86;101187.78;4995750;28;20065;-60
2022/03/28 02:50:09;;;;;;;2.63;1.10;;;;;;;8.99;64.04;101190.34;4993005;28;20058;-60
2022/03/28 02:52:36;;;;;;;5.78;1.35;;;;;;;8.99;63.58;101187.78;4994543;28;20129;-60
2022/03/28 02:55:03;;;;;;;3.65;1.27;;;;;;;8.97;63.30;101180.00;4994963;28;20061;-59
2022/03/28 02:57:30;;;;;;;3.88;1.23;;;;;;;8.98;64.25;101180.88;4994644;28;20058;-60
2022/03/28 02:59:57;;;;;;;6.15;1.48;;;;;;;8.98;63.52;101175.69;4994890;28;20057;-59
2022/03/28 03:02:24;;;;;;;7.38;1.33;;;;;;;8.97;63.39;101169.66;4994810;28;20367;-59
2022/03/28 03:04:51;;;;;;;4.85;1.95;;;;;;;8.96;63.65;101187.75;4994251;28;20065;-60
2022/03/28 03:07:19;;;;;;;7.20;2.25;;;;;;;8.93;64.22;101167.91;4995288;28;20670;-60
2022/03/28 03:09:46;;;;;;;4.95;1.40;;;;;;;8.91;64.25;101163.59;4990268;28;20058;-58
2022/03/28 03:12:13;;;;;;;4.85;1.35;;;;;;;8.90;63.84;101164.47;4993443;28;20082;-59
2022/03/28 03:14:41;;;;;;;3.85;1.60;;;;;;;8.89;64.64;101178.25;4994053;28;20092;-60
2022/03/28 03:17:07;;;;;;;4.97;1.20;;;;;;;8.87;63.81;101173.06;4994434;28;20057;-59
2022/03/28 03:19:34;;;;;;;2.83;1.08;;;;;;;8.87;64.29;101160.13;4994612;28;20514;-59
2022/03/28 03:22:00;;;;;;;3.72;1.00;;;;;;;8.87;63.90;101172.19;4993689;28;20050;-59
2022/03/28 03:24:27;;;;;;;4.25;1.38;;;;;;;8.88;63.67;101168.75;4997341;28;20165;-60
2022/03/28 03:26:54;;;;;;;8.50;1.77;;;;;;;8.90;64.34;101162.72;4994191;28;20056;-59
2022/03/28 03:29:20;;;;;;;3.35;1.15;;;;;;;8.91;63.92;101158.44;4995373;28;20057;-58
2022/03/28 03:31:48;;;;;;;4.35;1.20;;;;;;;8.89;63.72;101157.56;4994511;28;20053;-59
2022/03/28 03:34:15;;;;;;;3.53;1.10;;;;;;;8.88;63.87;101163.59;4996719;28;20050;-59
2022/03/28 03:36:42;;;;;;;4.20;1.40;;;;;;;8.84;63.85;101158.41;4999238;28;20487;-59
2022/03/28 03:39:08;;;;;;;7.95;1.45;;;;;;;8.83;64.11;101151.47;4999937;28;20058;-59
2022/03/28 03:41:35;;;;;;;5.57;1.45;;;;;;;8.83;64.46;101146.28;4999581;28;20065;-59
2022/03/28 03:44:01;;;;;;;3.47;1.60;;;;;;;8.85;64.10;101149.78;4998664;28;20050;-59
2022/03/28 03:46:28;;;;;;;11.05;1.92;;;;;;;8.89;64.24;101144.63;4997753;28;20129;-59
2022/03/28 03:48:56;;;;;;;7.25;1.30;;;;;;;8.88;64.15;101142.91;4998461;28;20413;-60
2022/03/28 03:51:22;;;;;;;2.17;1.15;;;;;;;8.84;64.40;101142.88;4996819;28;20060;-59
2022/03/28 03:53:49;;;;;;;2.30;1.05;;;;;;;8.84;64.14;101131.66;4999291;28;20086;-58
2022/03/28 03:56:15;;;;;;;3.63;1.48;;;;;;;8.82;64.94;101129.06;4998612;28;20076;-59
2022/03/28 03:58:42;;;;;;;5.20;1.77;;;;;;;8.82;64.69;101129.06;5001885;28;20057;-60
2022/03/28 04:01:09;;;;;;;5.22;1.38;;;;;;;8.82;64.50;101129.06;5004337;28;20508;-60
2022/03/28 04:03:37;;;;;;;5.38;1.20;;;;;;;8.82;64.67;101117.84;5003198;28;20053;-59
2022/03/28 04:06:10;;;;;;;2.60;0.90;;;;;;;8.82;64.20;101123.88;4997519;28;20120;-59
2022/03/28 04:08:37;;;;;;;2.50;1.05;;;;;;;8.83;64.67;101120.44;5002786;28;20042;-59
2022/03/28 04:11:06;;;;;;;3.47;1.35;;;;;;;8.84;64.34;101121.31;5001553;28;20053;-60
2022/03/28 04:13:34;;;;;;;2.70;1.20;;;;;;;8.82;64.48;101129.06;5001731;28;20406;-59
2022/03/28 04:16:01;;;;;;;5.38;1.63;;;;;;;8.81;64.44;101121.28;5001841;28;20050;-59
2022/03/28 04:18:28;;;;;;;4.50;1.73;;;;;;;8.77;64.47;101123.00;5001864;28;20061;-59
2022/03/28 04:20:57;;;;;;;5.57;1.48;;;;;;;8.76;64.65;101110.06;5000458;28;20490;-58
2022/03/28 04:23:26;;;;;;;2.78;1.40;;;;;;;8.75;64.69;101116.09;4998913;28;20103;-59
2022/03/28 04:25:54;;;;;;;3.05;1.17;;;;;;;8.75;64.70;101116.97;5002059;28;20057;-59
2022/03/28 04:28:21;;;;;;;5.90;1.70;;;;;;;8.74;64.51;101115.22;5002831;28;20047;-58
2022/03/28 04:30:50;;;;;;;4.20;1.80;;;;;;;8.70;64.82;101113.50;5001433;28;20055;-58
2022/03/28 04:33:21;;;;;;;8.10;1.90;;;;;;;8.68;64.27;101110.03;5000887;28;20103;-62
2022/03/28 04:35:50;;;;;;;5.40;1.90;;;;;;;8.63;65.04;101114.31;5002658;28;20096;-61
2022/03/28 04:38:18;;;;;;;3.55;1.52;;;;;;;8.63;65.22;101116.03;5000905;28;20053;-60
2022/03/28 04:40:47;;;;;;;3.47;1.13;;;;;;;8.61;65.21;101110.84;4999594;28;20092;-60
2022/03/28 04:43:15;;;;;;;4.90;1.70;;;;;;;8.63;64.93;101106.56;5000779;28;20178;-60
2022/03/28 04:45:43;;;;;;;5.25;1.83;;;;;;;8.62;65.20;101099.66;5000003;28;20490;-60
2022/03/28 04:48:10;;;;;;;9.48;1.90;;;;;;;8.61;65.03;101095.34;5001747;28;20469;-60
2022/03/28 04:50:37;;;;;;;7.78;2.00;;;;;;;8.60;65.35;101091.03;5001865;28;20042;-59
2022/03/28 04:53:04;;;;;;;2.95;1.38;;;;;;;8.60;65.19;101093.63;5001063;28;20057;-59
2022/03/28 04:55:32;;;;;;;3.63;1.40;;;;;;;8.59;65.20;101097.06;5000898;28;20451;-60
2022/03/28 04:58:03;;;;;;;4.72;1.63;;;;;;;8.60;64.87;101091.03;5000594;28;20120;-59
2022/03/28 05:00:32;;;;;;;4.15;1.80;;;;;;;8.61;64.80;101095.34;5000783;28;20691;-60
2022/03/28 05:02:59;;;;;;;8.60;1.90;;;;;;;8.59;65.19;101084.16;4999890;28;20053;-59
2022/03/28 05:05:27;;;;;;;5.30;2.10;;;;;;;8.59;65.16;101089.31;4999289;28;20055;-59
2022/03/28 05:07:54;;;;;;;6.15;1.73;;;;;;;8.61;64.81;101082.44;5001338;28;20430;-60
2022/03/28 05:10:23;;;;;;;4.13;1.75;;;;;;;8.61;65.12;101085.00;5000529;28;20251;-59
2022/03/28 05:12:50;;;;;;;4.80;1.67;;;;;;;8.64;65.07;101074.69;5000862;28;20683;-59
2022/03/28 05:15:19;;;;;;;4.70;1.70;;;;;;;8.68;64.73;101071.25;5000160;28;20052;-60
2022/03/28 05:17:48;;;;;;;7.70;2.15;;;;;;;8.75;64.58;101074.75;5004467;28;20053;-59
2022/03/28 05:20:15;;;;;;;7.95;1.85;;;;;;;8.82;64.70;101064.44;5000142;28;20080;-60
2022/03/28 05:22:42;;;;;;;7.25;1.88;;;;;;;8.90;64.45;101068.78;5000667;28;20458;-60
2022/03/28 05:25:10;;;;;;;4.43;1.30;;;;;;;8.98;64.35;101073.13;5002608;28;20387;-57
2022/03/28 05:27:45;;;;;;;3.97;1.40;;;;;;;9.06;64.52;101055.06;5000395;28;20038;-59
2022/03/28 05:30:14;;;;;;;6.75;2.00;;;;;;;9.13;64.09;101056.78;5002446;28;20057;-60
2022/03/28 05:32:43;;;;;;;6.30;2.78;;;;;;;9.20;63.81;101055.94;4998828;28;20066;-58
2022/03/28 05:35:11;;;;;;;4.53;1.60;;;;;;;9.29;63.71;101058.56;4999691;28;20829;-59
2022/03/28 05:37:43;;;;;;;8.05;2.25;;;;;;;9.39;63.15;101054.28;4999874;28;20046;-59
2022/03/28 05:40:12;;;;;;;5.63;2.17;;;;;;;9.46;62.90;101045.66;4999443;28;20056;-59
2022/03/28 05:42:40;;;;;;;5.53;2.03;;;;;;;9.54;62.84;101048.25;5000691;28;20061;-58
2022/03/28 05:45:10;;;;;;;5.18;1.90;;;;;;;9.60;62.37;101038.78;4999720;28;20054;-58
2022/03/28 05:47:37;;;;;;;4.32;1.50;;;;;;;9.67;61.97;101040.50;4997972;28;20125;-58
2022/03/28 05:50:06;;;;;;;5.55;2.00;;;;;;;9.73;61.78;101039.63;4999401;28;20489;-59
2022/03/28 05:52:34;;;;;;;3.72;1.75;;;;;;;9.82;61.53;101030.13;5000255;28;20073;-58
2022/03/28 05:55:01;;;;;;;4.80;1.70;;;;;;;9.90;61.89;101032.75;4999278;28;20077;-59
2022/03/28 05:57:28;;;;;;;4.88;1.40;;;;;;;9.99;61.56;101032.72;4998986;28;20974;-59
2022/03/28 05:59:55;;;;;;;3.67;1.90;;;;;;;10.09;61.00;101024.06;4999282;28;20184;-59
2022/03/28 06:02:22;;;;;;;6.35;1.60;;;;;;;10.21;61.02;101035.31;4999686;28;20386;-59
2022/03/28 06:04:49;;;;;;;2.92;1.50;;;;;;;10.30;60.48;101027.50;4999702;28;20061;-59
2022/03/28 06:07:18;;;;;;;9.80;1.63;;;;;;;10.39;60.63;101030.06;4998343;28;20050;-59
2022/03/28 06:09:46;;;;;;;5.80;2.47;;;;;;;10.48;59.88;101027.47;4987951;28;20054;-61
2022/03/28 06:12:15;;;;;;;4.80;1.95;;;;;;;10.57;59.46;101017.06;4990226;28;21879;-63
2022/03/28 06:14:42;;;;;;;4.88;1.63;;;;;;;10.68;59.30;101014.44;4998704;28;20062;-63
2022/03/28 06:17:11;;;;;;;5.68;1.73;;;;;;;10.77;59.39;101019.56;4997803;28;20069;-62
2022/03/28 06:19:38;;;;;;;6.28;1.83;;;;;;;10.85;58.99;101012.63;4997039;28;20042;-64
2022/03/28 06:22:05;;;;;;;5.30;2.00;;;;;;;10.94;58.29;101001.38;4999244;28;20062;-64
2022/03/28 06:24:34;;;;;;;10.20;2.20;;;;;;;10.99;58.17;100999.59;4997546;28;20066;-62
2022/03/28 06:27:02;;;;;;;4.90;2.03;;;;;;;11.08;58.11;101015.13;4997606;28;20065;-63
2022/03/28 06:29:29;;;;;;;8.60;3.28;;;;;;;11.15;57.79;101006.41;4996960;28;21063;-62
2022/03/28 06:31:57;;;;;;;8.02;2.08;;;;;;;11.23;57.72;101008.97;4998591;28;20431;-62
2022/03/28 06:34:24;;;;;;;5.78;2.67;;;;;;;11.29;57.18;101014.97;4995727;28;20049;-63
2022/03/28 06:36:51;;;;;;;4.85;1.88;;;;;;;11.33;57.62;101008.88;4996294;28;20057;-64
2022/03/28 06:39:20;;;;;;;6.20;2.05;;;;;;;11.39;57.12;101001.03;4996116;28;20050;-64
2022/03/28 06:41:49;;;;;;;7.50;1.80;;;;;;;11.46;56.98;101001.91;4997532;28;20133;-63
2022/03/28 06:44:18;;;;;;;7.13;1.73;;;;;;;11.53;56.82;100997.50;4998606;28;20507;-64
2022/03/28 06:46:45;;;;;;;9.68;2.22;;;;;;;11.57;56.63;101000.06;4999715;28;20549;-64
2022/03/28 06:49:13;;;;;;;3.60;1.50;;;;;;;11.64;56.34;101000.88;4995437;28;20406;-63
2022/03/28 06:51:40;;;;;;;6.45;1.88;;;;;;;11.70;56.27;100995.63;4994889;28;20086;-64
2022/03/28 06:54:08;;;;;;;5.75;2.05;;;;;;;11.76;56.03;100985.19;4997419;28;20045;-61
2022/03/28 06:56:36;;;;;;;5.07;2.17;;;;;;;11.81;55.60;100993.81;4995718;28;20108;-62
2022/03/28 06:59:04;;;;;;;11.60;2.75;;;;;;;11.85;55.44;100979.06;4999186;28;20228;-60
2022/03/28 07:01:32;;;;;;;6.05;2.53;;;;;;;11.89;55.27;100992.00;4997618;28;20110;-59
2022/03/28 07:04:00;;;;;;;5.53;2.30;;;;;;;11.92;55.32;100984.19;4993196;28;20058;-59
2022/03/28 07:06:27;;;;;;;6.18;2.25;;;;;;;12.00;55.22;100982.41;4995910;28;21501;-60
2022/03/28 07:08:53;;;;;;;15.52;2.50;;;;;;;12.08;54.99;100978.84;4996752;28;20050;-59
2022/03/28 07:11:24;;;;;;;9.13;2.95;;;;;;;12.17;54.40;100981.34;4997091;28;20344;-60
2022/03/28 07:13:53;;;;;;;4.07;1.83;;;;;;;12.25;54.38;100971.72;4999705;28;20057;-60
2022/03/28 07:16:21;;;;;;;5.28;1.77;;;;;;;12.32;54.41;100970.78;4998403;28;20491;-59
2022/03/28 07:18:48;;;;;;;14.07;3.38;;;;;;;12.41;53.96;100965.47;4997810;28;20058;-59
2022/03/28 07:21:15;;;;;;;10.13;2.58;;;;;;;12.46;53.62;100961.06;5002158;28;20418;-67
2022/03/28 07:23:43;;;;;;;8.82;2.17;;;;;;;12.54;53.35;100956.66;4978775;28;20074;-64
2022/03/28 07:26:10;;;;;;;7.97;2.03;;;;;;;12.58;53.15;100947.94;4994933;28;20054;-65
2022/03/28 07:28:39;;;;;;;11.27;2.40;;;;;;;12.66;52.30;100947.84;4997687;28;20042;-62
2022/03/28 07:31:08;;;;;;;9.07;2.63;;;;;;;12.73;52.28;100935.59;4994112;28;20124;-67
2022/03/28 07:33:37;;;;;;;5.80;2.13;;;;;;;12.82;52.27;100930.25;4996862;28;21405;-60
2022/03/28 07:36:04;;;;;;;14.30;2.00;;;;;;;12.88;51.93;100940.56;4996813;28;20046;-60
2022/03/28 07:38:31;;;;;;;8.30;2.10;;;;;;;12.97;51.86;100940.44;4996123;28;21529;-58
2022/03/28 07:40:58;;;;;;;7.20;2.65;;;;;;;13.07;51.65;100939.44;4998202;28;20641;-58
2022/03/28 07:43:25;;;;;;;10.18;2.30;;;;;;;13.15;51.24;100934.97;5000688;28;20050;-59
2022/03/28 07:45:53;;;;;;;15.05;2.53;;;;;;;13.24;51.07;100937.47;4997917;28;20057;-60
2022/03/28 07:48:21;;;;;;;3.78;1.50;;;;;;;13.31;50.44;100930.41;4998688;28;20474;-59
2022/03/28 07:50:49;;;;;;;12.00;2.00;;;;;;;13.39;50.50;100936.34;4999381;28;20435;-61
2022/03/28 07:53:16;;;;;;;20.67;3.20;;;;;;;13.45;49.78;100922.38;5003866;28;20082;-61
2022/03/28 07:55:45;;;;;;;3.30;1.73;;;;;;;13.51;49.89;100928.31;5002729;28;20046;-64
2022/03/28 07:58:12;;;;;;;6.85;3.15;;;;;;;13.56;49.28;100923.06;4995090;28;20141;-61
2022/03/28 08:00:40;;;;;;;9.10;1.98;;;;;;;13.61;49.11;100907.34;4996080;28;20057;-61
2022/03/28 08:03:08;;;;;;;9.63;1.90;;;;;;;13.67;49.00;100905.50;4997572;28;20059;-59
2022/03/28 08:05:35;;;;;;;7.60;1.65;;;;;;;13.73;49.04;100907.97;4997774;28;20574;-62
2022/03/28 08:08:08;;;;;;;4.13;1.60;;;;;;;13.80;48.69;100899.16;4997198;28;20573;-64
2022/03/28 08:10:36;;;;;;;8.98;3.72;;;;;;;13.86;48.32;100896.44;4995798;28;20056;-61
2022/03/28 08:13:12;;;;;;;5.47;1.95;;;;;;;13.94;48.34;100879.78;4997428;28;20156;-59
2022/03/28 08:15:39;;;;;;;11.02;1.92;;;;;;;14.00;48.30;100887.47;4995616;28;20054;-62
2022/03/28 08:18:06;;;;;;;5.00;2.05;;;;;;;14.07;48.42;100889.09;4999274;28;20042;-62
2022/03/28 08:20:33;;;;;;;13.02;2.88;;;;;;;14.15;47.55;100889.81;5002506;28;20136;-60
2022/03/28 08:23:00;;;;;;;20.58;3.67;;;;;;;14.21;47.02;100868.81;4999145;28;20050;-60
2022/03/28 08:25:30;;;;;;;9.25;2.05;;;;;;;14.29;47.06;100885.16;5001770;28;20072;-60
2022/03/28 08:27:57;;;;;;;33.08;2.90;;;;;;;14.34;46.86;100893.72;5001890;28;20091;-64
2022/03/28 08:30:25;;;;;;;5.03;2.33;;;;;;;14.39;46.62;100873.63;5003723;28;20057;-60
2022/03/28 08:32:52;;;;;;;13.10;2.65;;;;;;;14.44;46.56;100877.03;4996007;28;20498;-60
2022/03/28 08:35:19;;;;;;;8.48;1.77;;;;;;;14.49;46.85;100885.59;5002265;28;20041;-60
2022/03/28 08:37:46;;;;;;;17.50;2.95;;;;;;;14.53;46.45;100876.81;4999357;28;20042;-60
2022/03/28 08:40:17;;;;;;;10.30;2.17;;;;;;;14.58;46.04;100883.72;5003443;28;20379;-60
2022/03/28 08:42:47;;;;;;;6.07;2.10;;;;;;;14.60;46.03;100867.13;5003558;28;20046;-62
2022/03/28 08:45:14;;;;;;;30.63;3.30;;;;;;;14.65;45.97;100864.41;5002001;28;20046;-62
2022/03/28 08:47:43;;;;;;;20.77;2.08;;;;;;;14.71;45.80;100880.78;5001336;28;20042;-60
2022/03/28 08:50:10;;;;;;;10.38;2.33;;;;;;;14.78;45.90;100876.28;4999434;28;20042;-62
2022/03/28 08:52:40;;;;;;;28.88;3.25;;;;;;;14.84;45.39;100881.34;5000883;28;20433;-61
2022/03/28 08:55:09;;;;;;;19.00;3.65;;;;;;;14.89;45.51;100889.94;4998921;28;20046;-60
2022/03/28 08:57:36;;;;;;;14.50;2.55;;;;;;;14.93;45.15;100881.13;5003916;28;20069;-60
2022/03/28 09:00:06;;;;;;;14.18;2.22;;;;;;;14.97;45.11;100882.78;5000036;28;20354;-60
2022/03/28 09:02:41;;;;;;;9.90;2.90;;;;;;;15.02;45.14;100867.00;4998727;28;20046;-66
2022/03/28 09:05:09;;;;;;;6.22;1.65;;;;;;;15.04;44.62;100879.13;5000106;28;20061;-61
2022/03/28 09:07:36;;;;;;;29.30;4.00;;;;;;;15.05;44.63;100891.28;4996686;28;20200;-59
2022/03/28 09:10:06;;;;;;;7.53;1.90;;;;;;;15.07;44.71;100892.09;4997209;28;20045;-59
2022/03/28 09:12:39;;;;;;;18.15;3.20;;;;;;;15.09;44.80;100881.66;4999151;28;20053;-61
2022/03/28 09:15:14;;;;;;;20.05;2.83;;;;;;;15.12;44.85;100876.34;5000703;28;20054;-61
2022/03/28 09:17:43;;;;;;;10.15;2.20;;;;;;;15.16;44.55;100878.00;5001035;28;20573;-72
2022/03/28 09:20:11;;;;;;;12.43;3.25;;;;;;;15.19;44.89;100866.59;5000558;28;20049;-65
2022/03/28 09:22:42;;;;;;;7.65;1.60;;;;;;;15.22;45.04;100861.31;4997055;28;20054;-64
2022/03/28 09:25:17;;;;;;;9.52;2.53;;;;;;;15.25;44.86;100850.78;4997159;28;20065;-63
2022/03/28 09:27:47;;;;;;;9.35;2.00;;;;;;;15.31;44.50;100846.25;5001457;28;20049;-66
2022/03/28 09:30:17;;;;;;;10.30;1.70;;;;;;;15.36;44.43;100853.97;4997548;28;20081;-61
2022/03/28 09:32:46;;;;;;;4.65;1.55;;;;;;;15.39;44.53;100859.09;4996750;28;20042;-58
2022/03/28 09:35:19;;;;;;;4.05;1.83;;;;;;;15.41;44.58;100836.41;4999743;28;20078;-59
2022/03/28 09:38:01;;;;;;;7.13;1.70;;;;;;;15.44;44.35;100836.34;4998791;28;20046;-59
2022/03/28 09:40:37;;;;;;;6.25;1.88;;;;;;;15.50;44.59;100846.63;5000620;28;20042;-59
2022/03/28 09:43:07;;;;;;;4.30;1.48;;;;;;;15.55;44.66;100856.94;4997414;28;20046;-63
2022/03/28 09:45:42;;;;;;;4.05;1.45;;;;;;;15.60;44.50;100842.88;4995315;28;20180;-60
2022/03/28 09:48:14;;;;;;;7.97;2.00;;;;;;;15.66;44.46;100842.75;4995555;28;20050;-58
2022/03/28 09:50:43;;;;;;;17.48;2.80;;;;;;;15.69;44.08;100847.88;4995523;28;20324;-59
2022/03/28 09:53:19;;;;;;;11.02;2.53;;;;;;;15.72;43.97;100852.19;5000602;28;20037;-55
2022/03/28 09:55:52;;;;;;;8.30;1.75;;;;;;;15.75;43.57;100858.16;4998885;28;20068;-60
2022/03/28 09:58:34;;;;;;;18.75;3.25;;;;;;;15.75;43.59;100847.72;4999140;28;20061;-62
2022/03/28 10:01:05;;;;;;;6.40;1.50;;;;;;;15.78;43.27;100852.00;4998580;28;20490;-64
2022/03/28 10:03:34;;;;;;;11.05;2.35;;;;;;;15.80;43.43;100857.19;4997152;28;20537;-58
2022/03/28 10:06:02;;;;;;;6.95;1.65;;;;;;;15.81;43.00;100846.69;4997577;28;20053;-58
2022/03/28 10:08:30;;;;;;;9.60;2.08;;;;;;;15.78;43.20;100834.56;4997031;28;20050;-62
2022/03/28 10:10:58;;;;;;;5.75;1.63;;;;;;;15.72;43.08;100842.56;4997484;28;20399;-60
2022/03/28 10:13:25;;;;;;;18.40;1.80;;;;;;;15.67;42.90;100834.00;4997786;28;20153;-60
2022/03/28 10:15:52;;;;;;;5.30;1.77;;;;;;;15.58;42.94;100823.78;4997300;28;20046;-66
2022/03/28 10:18:21;;;;;;;10.07;1.90;;;;;;;15.54;43.13;100827.34;4996585;28;20047;-72
2022/03/28 10:20:54;;;;;;;14.32;2.30;;;;;;;15.52;43.50;100834.38;4997099;28;20467;-62
2022/03/28 10:23:27;;;;;;;3.25;1.30;;;;;;;15.47;43.61;100825.81;4996985;28;20058;-62
2022/03/28 10:25:57;;;;;;;4.53;1.30;;;;;;;15.47;43.83;100826.66;4996840;28;20058;-61
2022/03/28 10:28:25;;;;;;;4.05;1.25;;;;;;;15.53;43.78;100833.47;4995993;28;20077;-61
2022/03/28 10:31:14;;;;;;;6.07;2.00;;;;;;;15.60;44.03;100824.59;4997323;28;20046;-59
2022/03/28 10:33:54;;;;;;;5.97;2.10;;;;;;;15.68;43.49;100820.03;5001745;28;20042;-59
2022/03/28 10:36:28;;;;;;;19.92;3.08;;;;;;;15.71;43.67;100829.56;4998673;28;20402;-60
2022/03/28 10:38:58;;;;;;;7.53;1.50;;;;;;;15.78;43.82;100824.09;4999293;28;20042;-61
2022/03/28 10:41:28;;;;;;;3.88;1.73;;;;;;;15.83;43.58;100833.56;5000530;28;20046;-60
2022/03/28 10:44:04;;;;;;;11.30;1.73;;;;;;;15.83;43.61;100830.97;4998723;28;20041;-60
2022/03/28 10:46:35;;;;;;;9.70;1.83;;;;;;;15.85;43.63;100818.69;5001220;28;20145;-70
2022/03/28 10:49:06;;;;;;;7.75;1.88;;;;;;;15.91;43.48;100811.53;4999498;28;20057;-70
2022/03/28 10:51:34;;;;;;;8.43;1.65;;;;;;;15.95;43.66;100812.31;4998153;28;20049;-65
2022/03/28 10:54:03;;;;;;;20.42;3.60;;;;;;;15.99;43.29;100803.47;4997478;28;20161;-67
2022/03/28 10:56:34;;;;;;;4.32;1.70;;;;;;;16.04;43.09;100802.44;4996718;28;20116;-64
2022/03/28 10:59:07;;;;;;;10.05;2.40;;;;;;;16.05;43.04;100801.53;4998619;28;20065;-61
2022/03/28 11:01:37;;;;;;;6.30;1.95;;;;;;;16.08;42.82;100787.50;4998682;28;20042;-61
2022/03/28 11:04:18;;;;;;;7.28;1.83;;;;;;;16.09;42.79;100784.84;4999329;28;20425;-63
2022/03/28 11:06:53;;;;;;;13.65;2.08;;;;;;;16.10;42.91;100780.47;4994346;28;20054;-64
2022/03/28 11:09:50;;;;;;;21.80;2.28;;;;;;;16.09;42.59;100787.47;4997645;28;20752;-62
2022/03/28 11:12:20;;;;;;;4.95;1.85;;;;;;;16.08;42.62;100780.50;4996769;28;20451;-64
2022/03/28 11:14:56;;;;;;;18.98;3.15;;;;;;;16.07;42.46;100770.09;4998510;28;20125;-57
2022/03/28 11:17:26;;;;;;;4.20;1.88;;;;;;;16.07;42.15;100776.19;4997208;28;20561;-58
2022/03/28 11:20:00;;;;;;;20.85;2.60;;;;;;;16.05;42.08;100771.91;4998002;28;20037;-57
2022/03/28 11:23:07;;;;;;;6.57;2.00;;;;;;;16.02;42.03;100761.53;4999636;28;20433;-70
2022/03/28 11:25:46;;;;;;;9.20;2.05;;;;;;;15.99;42.15;100764.25;4918892;29;20148;-69
2022/03/28 11:28:26;;;;;;;21.00;3.22;;;;;;;15.98;42.23;100760.78;4990536;28;20502;-61
2022/03/28 11:31:06;;;;;;;6.20;1.92;;;;;;;15.98;42.06;100773.00;4999102;28;20038;-59
2022/03/28 11:33:36;;;;;;;5.25;1.85;;;;;;;15.93;42.29;100756.59;4996712;28;20553;-58
2022/03/28 11:36:07;;;;;;;6.90;2.75;;;;;;;15.89;42.13;100768.03;4997910;28;20053;-59
2022/03/28 11:38:38;;;;;;;3.88;1.90;;;;;;;15.83;42.12;100749.94;4997781;28;20509;-57
2022/03/28 11:41:05;;;;;;;6.10;1.65;;;;;;;15.78;42.47;100753.53;4999009;28;20039;-62
2022/03/28 11:43:35;;;;;;;7.60;2.30;;;;;;;15.78;41.84;100748.31;4996646;28;20057;-60
2022/03/28 11:46:04;;;;;;;3.50;1.65;;;;;;;15.81;41.99;100751.75;4998920;28;20089;-57
2022/03/28 11:48:30;;;;;;;5.38;1.98;;;;;;;15.81;42.09;100741.28;4999185;28;20433;-57
2022/03/28 11:50:57;;;;;;;21.95;3.75;;;;;;;15.82;41.95;100737.75;4997899;28;20053;-58
2022/03/28 11:53:26;;;;;;;15.77;2.78;;;;;;;15.81;41.96;100741.28;4997073;28;20057;-59
2022/03/28 11:55:55;;;;;;;8.85;2.70;;;;;;;15.80;41.80;100745.66;4998557;28;20380;-64
2022/03/28 11:58:30;;;;;;;9.98;2.15;;;;;;;15.80;41.97;100734.34;5000579;28;20430;-63
2022/03/28 12:01:07;;;;;;;8.10;2.88;;;;;;;15.78;41.90;100752.69;5001950;28;20045;-61
2022/03/28 12:03:37;;;;;;;6.00;1.85;;;;;;;15.76;41.81;100747.50;5000052;28;20042;-62
2022/03/28 12:06:04;;;;;;;6.35;1.90;;;;;;;15.76;41.84;100733.56;4998127;28;20064;-62
2022/03/28 12:08:32;;;;;;;8.43;2.00;;;;;;;15.75;41.88;100727.50;5000714;28;20770;-62
2022/03/28 12:10:59;;;;;;;12.60;2.17;;;;;;;15.69;41.85;100722.47;5003248;28;20119;-57
2022/03/28 12:13:27;;;;;;;7.28;2.22;;;;;;;15.64;41.87;100729.56;5000065;28;20049;-57
2022/03/28 12:15:55;;;;;;;7.90;2.50;;;;;;;15.62;41.56;100746.19;5005323;28;20050;-59
2022/03/28 12:18:30;;;;;;;6.47;2.13;;;;;;;15.58;41.57;100745.41;5002954;28;20132;-61
2022/03/28 12:20:58;;;;;;;6.40;1.90;;;;;;;15.50;41.91;100736.91;5001291;28;20129;-62
2022/03/28 12:23:28;;;;;;;7.72;1.80;;;;;;;15.48;41.87;100738.69;5001594;28;20038;-62
2022/03/28 12:26:03;;;;;;;3.95;1.63;;;;;;;15.44;42.23;100737.06;5002195;28;20214;-63
2022/03/28 12:28:33;;;;;;;14.10;2.40;;;;;;;15.40;42.00;100735.44;4999079;28;20060;-63
2022/03/28 12:31:05;;;;;;;9.10;2.30;;;;;;;15.36;42.26;100733.81;4998815;28;20062;-64
2022/03/28 12:33:34;;;;;;;13.35;2.85;;;;;;;15.33;42.14;100724.31;4998687;28;20057;-66
2022/03/28 12:36:04;;;;;;;5.50;1.88;;;;;;;15.29;42.43;100727.06;4999628;28;20050;-64
2022/03/28 12:38:33;;;;;;;9.88;3.05;;;;;;;15.26;42.48;100711.47;5001710;28;20422;-65
2022/03/28 12:41:04;;;;;;;7.10;2.45;;;;;;;15.23;42.44;100711.56;5002694;28;20046;-64
2022/03/28 12:43:34;;;;;;;32.05;4.47;;;;;;;15.18;42.27;100703.00;5000874;28;20053;-61
2022/03/28 12:46:05;;;;;;;14.20;3.60;;;;;;;15.11;42.34;100703.19;5001382;28;20414;-61
2022/03/28 12:48:44;;;;;;;10.65;3.08;;;;;;;15.07;42.46;100688.47;5004589;28;20435;-60
2022/03/28 12:51:13;;;;;;;8.35;2.60;;;;;;;15.04;42.56;100691.16;5006136;28;20058;-62
2022/03/28 12:53:41;;;;;;;5.90;2.38;;;;;;;15.00;42.48;100684.31;4999084;28;20399;-61
2022/03/28 12:56:18;;;;;;;7.80;4.05;;;;;;;14.96;42.35;100693.13;5002968;28;20145;-61
2022/03/28 12:58:53;;;;;;;6.82;3.05;;;;;;;14.90;42.28;100688.06;5002926;28;20124;-62
2022/03/28 13:01:27;;;;;;;21.98;3.30;;;;;;;14.82;42.20;100684.81;5004041;28;20141;-63
2022/03/28 13:04:08;;;;;;;8.20;2.72;;;;;;;14.75;42.63;100678.03;5001361;28;20085;-62
2022/03/28 13:06:35;;;;;;;34.90;5.18;;;;;;;14.69;42.69;100668.63;4997197;28;21506;-61
2022/03/28 13:09:04;;;;;;;9.70;3.08;;;;;;;14.62;42.76;100656.66;5001345;28;20050;-63
2022/03/28 13:11:37;;;;;;;24.52;4.20;;;;;;;14.57;43.02;100663.75;5001914;28;20053;-65
2022/03/28 13:14:05;;;;;;;29.55;5.22;;;;;;;14.49;42.98;100673.47;5001556;28;20115;-68
2022/03/28 13:16:33;;;;;;;13.60;3.10;;;;;;;14.38;43.43;100662.44;4999100;28;20119;-63
2022/03/28 13:19:02;;;;;;;13.32;3.42;;;;;;;14.30;43.29;100660.03;5000988;28;20049;-61
2022/03/28 13:21:31;;;;;;;19.67;3.90;;;;;;;14.25;43.40;100650.59;4998856;28;20039;-63
2022/03/28 13:24:04;;;;;;;19.08;3.65;;;;;;;14.21;43.66;100649.81;4998686;28;20061;-64
2022/03/28 13:26:41;;;;;;;29.67;6.88;;;;;;;14.10;43.72;100652.69;4999213;28;20487;-65
2022/03/28 13:29:18;;;;;;;36.65;6.40;;;;;;;13.99;44.06;100638.19;4999793;28;20054;-61
2022/03/28 13:31:45;;;;;;;9.90;3.10;;;;;;;13.89;44.10;100643.63;4998173;28;20053;-64
2022/03/28 13:34:12;;;;;;;11.05;2.72;;;;;;;13.84;44.12;100635.03;4999345;28;20725;-64
2022/03/28 13:36:39;;;;;;;6.28;2.85;;;;;;;13.82;44.32;100623.81;4997829;28;20370;-64
2022/03/28 13:39:06;;;;;;;35.70;6.35;;;;;;;13.81;44.37;100609.06;5003334;28;20470;-64
2022/03/28 13:41:34;;;;;;;12.93;2.92;;;;;;;13.75;44.48;100624.84;5002435;28;20495;-60